sensor_id;sensor_type;location;lat;lon;timestamp;temperature;humidity
37996;DHT22;23808;50.634;6.948;2022-07-23T00:02:59;20.60;99.90
37996;DHT22;23808;50.634;6.948;2022-07-23T00:07:00;20.50;99.90
37996;DHT22;23808;50.634;6.948;2022-07-23T00:11:00;20.50;99.90
37996;DHT22;23808;50.634;6.948;2022-07-23T00:15:01;20.50;99.90
37996;DHT22;23808;50.634;6.948;2022-07-23T00:19:02;20.50;99.90
37996;DHT22;23808;50.634;6.948;2022-07-23T00:23:04;20.40;99.90
37996;DHT22;23808;50.634;6.948;2022-07-23T00:27:04;20.40;99.90
37996;DHT22;23808;50.634;6.948;2022-07-23T00:31:05;20.40;99.90
37996;DHT22;23808;50.634;6.948;2022-07-23T00:35:06;20.40;99.90
37996;DHT22;23808;50.634;6.948;2022-07-23T00:39:07;20.30;99.90
37996;DHT22;23808;50.634;6.948;2022-07-23T00:43:08;20.20;99.90
37996;DHT22;23808;50.634;6.948;2022-07-23T00:47:08;20.10;99.90
37996;DHT22;23808;50.634;6.948;2022-07-23T00:51:09;20.00;99.90
37996;DHT22;23808;50.634;6.948;2022-07-23T00:55:11;19.90;99.90
37996;DHT22;23808;50.634;6.948;2022-07-23T00:59:12;19.90;99.90
37996;DHT22;23808;50.634;6.948;2022-07-23T01:03:13;19.80;99.90
37996;DHT22;23808;50.634;6.948;2022-07-23T01:07:13;19.70;99.90
37996;DHT22;23808;50.634;6.948;2022-07-23T01:11:14;19.70;99.90
37996;DHT22;23808;50.634;6.948;2022-07-23T01:15:15;19.70;99.90
37996;DHT22;23808;50.634;6.948;2022-07-23T01:19:16;19.70;99.90
37996;DHT22;23808;50.634;6.948;2022-07-23T01:23:17;19.60;99.90
37996;DHT22;23808;50.634;6.948;2022-07-23T01:27:18;19.60;99.90
37996;DHT22;23808;50.634;6.948;2022-07-23T01:31:19;19.50;99.90
37996;DHT22;23808;50.634;6.948;2022-07-23T01:35:20;19.40;99.90
37996;DHT22;23808;50.634;6.948;2022-07-23T01:39:21;19.40;99.90
37996;DHT22;23808;50.634;6.948;2022-07-23T01:43:21;19.30;99.90
37996;DHT22;23808;50.634;6.948;2022-07-23T01:47:22;19.30;99.90
37996;DHT22;23808;50.634;6.948;2022-07-23T01:51:23;19.30;99.90
37996;DHT22;23808;50.634;6.948;2022-07-23T01:55:23;19.20;99.90
37996;DHT22;23808;50.634;6.948;2022-07-23T01:59:24;19.30;99.90
37996;DHT22;23808;50.634;6.948;2022-07-23T02:03:26;19.30;99.90
37996;DHT22;23808;50.634;6.948;2022-07-23T02:07:26;19.20;99.90
37996;DHT22;23808;50.634;6.948;2022-07-23T02:11:27;19.20;99.90
37996;DHT22;23808;50.634;6.948;2022-07-23T02:15:28;19.20;99.90
37996;DHT22;23808;50.634;6.948;2022-07-23T02:19:29;19.20;99.90
37996;DHT22;23808;50.634;6.948;2022-07-23T02:23:29;19.10;99.90
37996;DHT22;23808;50.634;6.948;2022-07-23T02:27:30;19.00;99.90
37996;DHT22;23808;50.634;6.948;2022-07-23T02:31:31;18.90;99.90
37996;DHT22;23808;50.634;6.948;2022-07-23T02:35:32;18.90;99.90
37996;DHT22;23808;50.634;6.948;2022-07-23T02:39:32;18.90;99.90
37996;DHT22;23808;50.634;6.948;2022-07-23T02:43:33;18.90;99.90
37996;DHT22;23808;50.634;6.948;2022-07-23T02:47:33;18.90;99.90
37996;DHT22;23808;50.634;6.948;2022-07-23T02:51:34;18.80;99.90
37996;DHT22;23808;50.634;6.948;2022-07-23T02:55:35;18.80;99.90
37996;DHT22;23808;50.634;6.948;2022-07-23T02:59:35;18.70;99.90
37996;DHT22;23808;50.634;6.948;2022-07-23T03:03:36;18.60;99.90
37996;DHT22;23808;50.634;6.948;2022-07-23T03:07:37;18.50;99.90
37996;DHT22;23808;50.634;6.948;2022-07-23T03:11:37;18.50;99.90
37996;DHT22;23808;50.634;6.948;2022-07-23T03:15:38;18.40;99.90
37996;DHT22;23808;50.634;6.948;2022-07-23T03:19:38;18.30;99.90
37996;DHT22;23808;50.634;6.948;2022-07-23T03:23:39;18.20;99.90
37996;DHT22;23808;50.634;6.948;2022-07-23T03:27:39;18.10;99.90
37996;DHT22;23808;50.634;6.948;2022-07-23T03:31:40;18.10;99.90
37996;DHT22;23808;50.634;6.948;2022-07-23T03:35:41;18.00;99.90
37996;DHT22;23808;50.634;6.948;2022-07-23T03:39:41;17.90;99.90
37996;DHT22;23808;50.634;6.948;2022-07-23T03:43:42;17.80;99.90
37996;DHT22;23808;50.634;6.948;2022-07-23T03:47:43;17.80;99.90
37996;DHT22;23808;50.634;6.948;2022-07-23T03:51:44;17.80;99.90
37996;DHT22;23808;50.634;6.948;2022-07-23T03:55:45;17.80;99.90
37996;DHT22;23808;50.634;6.948;2022-07-23T03:59:45;17.80;99.90
37996;DHT22;23808;50.634;6.948;2022-07-23T04:03:46;17.80;99.90
37996;DHT22;23808;50.634;6.948;2022-07-23T04:07:46;17.80;99.90
37996;DHT22;23808;50.634;6.948;2022-07-23T04:11:50;17.90;99.90
37996;DHT22;23808;50.634;6.948;2022-07-23T04:15:51;17.90;99.90
37996;DHT22;23808;50.634;6.948;2022-07-23T04:19:51;17.90;99.90
37996;DHT22;23808;50.634;6.948;2022-07-23T04:23:52;18.00;99.90
37996;DHT22;23808;50.634;6.948;2022-07-23T04:27:52;17.90;99.90
37996;DHT22;23808;50.634;6.948;2022-07-23T04:31:53;17.90;99.90
37996;DHT22;23808;50.634;6.948;2022-07-23T04:35:54;18.00;99.90
37996;DHT22;23808;50.634;6.948;2022-07-23T04:39:54;18.00;99.90
37996;DHT22;23808;50.634;6.948;2022-07-23T04:43:55;18.10;99.90
37996;DHT22;23808;50.634;6.948;2022-07-23T04:47:55;18.30;99.90
37996;DHT22;23808;50.634;6.948;2022-07-23T04:51:57;18.30;99.90
37996;DHT22;23808;50.634;6.948;2022-07-23T04:55:57;18.50;99.90
37996;DHT22;23808;50.634;6.948;2022-07-23T04:59:58;18.60;99.90
37996;DHT22;23808;50.634;6.948;2022-07-23T05:03:59;18.70;99.90
37996;DHT22;23808;50.634;6.948;2022-07-23T05:07:59;18.80;99.90
37996;DHT22;23808;50.634;6.948;2022-07-23T05:12:00;18.80;99.90
37996;DHT22;23808;50.634;6.948;2022-07-23T05:16:01;18.90;99.90
37996;DHT22;23808;50.634;6.948;2022-07-23T05:20:01;19.00;99.90
37996;DHT22;23808;50.634;6.948;2022-07-23T05:24:02;19.10;99.90
37996;DHT22;23808;50.634;6.948;2022-07-23T05:28:03;19.30;99.90
37996;DHT22;23808;50.634;6.948;2022-07-23T05:32:04;19.40;99.90
37996;DHT22;23808;50.634;6.948;2022-07-23T05:36:05;19.50;99.90
37996;DHT22;23808;50.634;6.948;2022-07-23T05:40:08;19.60;99.90
37996;DHT22;23808;50.634;6.948;2022-07-23T05:44:09;19.60;99.90
37996;DHT22;23808;50.634;6.948;2022-07-23T05:48:09;19.60;99.90
37996;DHT22;23808;50.634;6.948;2022-07-23T05:52:10;19.60;99.90
37996;DHT22;23808;50.634;6.948;2022-07-23T05:56:10;19.60;99.90
37996;DHT22;23808;50.634;6.948;2022-07-23T06:00:11;19.60;99.90
37996;DHT22;23808;50.634;6.948;2022-07-23T06:04:12;19.60;99.90
37996;DHT22;23808;50.634;6.948;2022-07-23T06:08:13;19.70;99.90
37996;DHT22;23808;50.634;6.948;2022-07-23T06:12:13;19.80;99.90
37996;DHT22;23808;50.634;6.948;2022-07-23T06:16:14;19.80;99.90
37996;DHT22;23808;50.634;6.948;2022-07-23T06:20:14;19.80;99.90
37996;DHT22;23808;50.634;6.948;2022-07-23T06:24:15;19.90;99.90
37996;DHT22;23808;50.634;6.948;2022-07-23T06:28:16;20.10;99.90
37996;DHT22;23808;50.634;6.948;2022-07-23T06:32:16;20.10;99.90
37996;DHT22;23808;50.634;6.948;2022-07-23T06:36:17;20.10;99.90
37996;DHT22;23808;50.634;6.948;2022-07-23T06:40:17;20.20;99.90
37996;DHT22;23808;50.634;6.948;2022-07-23T06:44:18;20.40;99.90
37996;DHT22;23808;50.634;6.948;2022-07-23T06:48:19;20.60;99.90
37996;DHT22;23808;50.634;6.948;2022-07-23T06:52:19;20.90;99.90
37996;DHT22;23808;50.634;6.948;2022-07-23T06:56:20;21.30;99.90
37996;DHT22;23808;50.634;6.948;2022-07-23T07:00:21;21.70;99.90
37996;DHT22;23808;50.634;6.948;2022-07-23T07:04:21;22.10;99.90
37996;DHT22;23808;50.634;6.948;2022-07-23T07:08:22;22.40;99.80
37996;DHT22;23808;50.634;6.948;2022-07-23T07:12:23;22.60;98.80
37996;DHT22;23808;50.634;6.948;2022-07-23T07:16:23;22.70;98.00
37996;DHT22;23808;50.634;6.948;2022-07-23T07:20:24;23.00;97.60
37996;DHT22;23808;50.634;6.948;2022-07-23T07:24:25;23.20;96.40
37996;DHT22;23808;50.634;6.948;2022-07-23T07:28:25;23.40;95.90
37996;DHT22;23808;50.634;6.948;2022-07-23T07:32:26;23.60;95.40
37996;DHT22;23808;50.634;6.948;2022-07-23T07:36:26;23.60;95.10
37996;DHT22;23808;50.634;6.948;2022-07-23T07:40:28;23.70;94.70
37996;DHT22;23808;50.634;6.948;2022-07-23T07:44:28;23.90;94.70
37996;DHT22;23808;50.634;6.948;2022-07-23T07:48:29;24.00;94.10
37996;DHT22;23808;50.634;6.948;2022-07-23T07:52:29;24.10;93.80
37996;DHT22;23808;50.634;6.948;2022-07-23T07:56:30;24.10;93.60
37996;DHT22;23808;50.634;6.948;2022-07-23T08:00:30;24.20;93.60
37996;DHT22;23808;50.634;6.948;2022-07-23T08:04:31;24.20;93.10
37996;DHT22;23808;50.634;6.948;2022-07-23T08:08:32;24.40;93.00
37996;DHT22;23808;50.634;6.948;2022-07-23T08:12:49;24.50;92.80
37996;DHT22;23808;50.634;6.948;2022-07-23T08:16:50;24.60;92.30
37996;DHT22;23808;50.634;6.948;2022-07-23T08:20:51;24.60;91.60
37996;DHT22;23808;50.634;6.948;2022-07-23T08:24:52;24.70;91.60
37996;DHT22;23808;50.634;6.948;2022-07-23T08:28:52;24.80;91.10
37996;DHT22;23808;50.634;6.948;2022-07-23T08:36:59;24.80;91.10
37996;DHT22;23808;50.634;6.948;2022-07-23T08:41:00;24.80;91.30
37996;DHT22;23808;50.634;6.948;2022-07-23T08:45:02;24.90;91.50
37996;DHT22;23808;50.634;6.948;2022-07-23T08:49:03;25.00;90.60
37996;DHT22;23808;50.634;6.948;2022-07-23T08:53:06;25.10;90.80
37996;DHT22;23808;50.634;6.948;2022-07-23T08:57:08;25.10;90.10
37996;DHT22;23808;50.634;6.948;2022-07-23T09:01:08;25.10;90.10
37996;DHT22;23808;50.634;6.948;2022-07-23T09:05:10;25.20;90.50
37996;DHT22;23808;50.634;6.948;2022-07-23T09:09:20;25.20;90.10
37996;DHT22;23808;50.634;6.948;2022-07-23T09:17:40;25.40;88.70
37996;DHT22;23808;50.634;6.948;2022-07-23T09:21:42;25.60;88.80
37996;DHT22;23808;50.634;6.948;2022-07-23T09:25:42;25.80;88.50
37996;DHT22;23808;50.634;6.948;2022-07-23T09:29:55;25.80;87.20
37996;DHT22;23808;50.634;6.948;2022-07-23T09:34:07;26.00;86.10
37996;DHT22;23808;50.634;6.948;2022-07-23T09:38:08;26.30;85.50
37996;DHT22;23808;50.634;6.948;2022-07-23T09:42:25;26.50;86.10
37996;DHT22;23808;50.634;6.948;2022-07-23T09:46:27;26.60;85.50
37996;DHT22;23808;50.634;6.948;2022-07-23T09:50:28;26.70;84.60
37996;DHT22;23808;50.634;6.948;2022-07-23T09:54:38;27.00;83.60
37996;DHT22;23808;50.634;6.948;2022-07-23T09:58:40;27.20;81.80
37996;DHT22;23808;50.634;6.948;2022-07-23T10:02:46;27.30;81.90
37996;DHT22;23808;50.634;6.948;2022-07-23T10:06:48;27.80;82.80
37996;DHT22;23808;50.634;6.948;2022-07-23T10:10:51;28.20;80.80
37996;DHT22;23808;50.634;6.948;2022-07-23T10:14:53;28.30;78.20
37996;DHT22;23808;50.634;6.948;2022-07-23T10:18:54;28.40;78.10
37996;DHT22;23808;50.634;6.948;2022-07-23T10:23:16;28.60;76.20
37996;DHT22;23808;50.634;6.948;2022-07-23T10:32:02;28.70;77.80
37996;DHT22;23808;50.634;6.948;2022-07-23T10:36:23;29.40;76.70
37996;DHT22;23808;50.634;6.948;2022-07-23T10:40:30;29.60;74.10
37996;DHT22;23808;50.634;6.948;2022-07-23T10:44:41;29.60;73.90
37996;DHT22;23808;50.634;6.948;2022-07-23T10:48:43;29.80;71.20
37996;DHT22;23808;50.634;6.948;2022-07-23T10:57:13;30.70;71.70
37996;DHT22;23808;50.634;6.948;2022-07-23T11:01:33;30.90;68.40
37996;DHT22;23808;50.634;6.948;2022-07-23T11:05:43;31.10;69.60
37996;DHT22;23808;50.634;6.948;2022-07-23T11:09:44;31.10;69.50
37996;DHT22;23808;50.634;6.948;2022-07-23T11:13:47;31.10;69.80
37996;DHT22;23808;50.634;6.948;2022-07-23T11:21:52;31.20;68.00
37996;DHT22;23808;50.634;6.948;2022-07-23T11:25:52;31.40;66.60
37996;DHT22;23808;50.634;6.948;2022-07-23T11:29:53;31.70;64.70
37996;DHT22;23808;50.634;6.948;2022-07-23T11:38:32;32.10;64.40
37996;DHT22;23808;50.634;6.948;2022-07-23T11:42:34;32.10;64.00
37996;DHT22;23808;50.634;6.948;2022-07-23T11:46:34;32.30;64.10
37996;DHT22;23808;50.634;6.948;2022-07-23T11:50:36;32.30;63.40
37996;DHT22;23808;50.634;6.948;2022-07-23T11:54:54;32.10;63.40
37996;DHT22;23808;50.634;6.948;2022-07-23T11:58:55;32.10;63.20
37996;DHT22;23808;50.634;6.948;2022-07-23T12:02:59;32.10;63.50
37996;DHT22;23808;50.634;6.948;2022-07-23T12:07:01;32.30;62.60
37996;DHT22;23808;50.634;6.948;2022-07-23T12:11:01;32.30;62.40
37996;DHT22;23808;50.634;6.948;2022-07-23T12:15:03;32.70;62.50
37996;DHT22;23808;50.634;6.948;2022-07-23T12:19:04;33.00;61.30
37996;DHT22;23808;50.634;6.948;2022-07-23T12:23:07;33.40;61.30
37996;DHT22;23808;50.634;6.948;2022-07-23T12:27:12;33.50;59.80
37996;DHT22;23808;50.634;6.948;2022-07-23T12:31:14;33.60;59.30
37996;DHT22;23808;50.634;6.948;2022-07-23T12:35:15;33.50;59.30
37996;DHT22;23808;50.634;6.948;2022-07-23T12:39:30;33.30;59.20
37996;DHT22;23808;50.634;6.948;2022-07-23T12:43:33;33.30;58.40
37996;DHT22;23808;50.634;6.948;2022-07-23T12:48:04;33.20;57.50
37996;DHT22;23808;50.634;6.948;2022-07-23T12:52:16;33.20;56.90
37996;DHT22;23808;50.634;6.948;2022-07-23T12:56:19;33.10;57.40
37996;DHT22;23808;50.634;6.948;2022-07-23T13:00:20;33.20;58.30
37996;DHT22;23808;50.634;6.948;2022-07-23T13:04:22;33.40;57.00
37996;DHT22;23808;50.634;6.948;2022-07-23T13:08:23;33.70;56.70
37996;DHT22;23808;50.634;6.948;2022-07-23T13:12:24;34.00;56.10
37996;DHT22;23808;50.634;6.948;2022-07-23T13:16:26;33.90;56.20
37996;DHT22;23808;50.634;6.948;2022-07-23T13:20:26;33.90;57.00
37996;DHT22;23808;50.634;6.948;2022-07-23T13:24:27;33.80;56.80
37996;DHT22;23808;50.634;6.948;2022-07-23T13:28:28;33.70;57.10
37996;DHT22;23808;50.634;6.948;2022-07-23T13:32:28;33.70;56.90
37996;DHT22;23808;50.634;6.948;2022-07-23T13:36:29;33.80;56.00
37996;DHT22;23808;50.634;6.948;2022-07-23T13:40:30;33.80;57.10
37996;DHT22;23808;50.634;6.948;2022-07-23T13:44:30;33.90;56.20
37996;DHT22;23808;50.634;6.948;2022-07-23T13:48:31;33.70;56.50
37996;DHT22;23808;50.634;6.948;2022-07-23T13:52:32;33.70;56.10
37996;DHT22;23808;50.634;6.948;2022-07-23T13:56:36;33.80;56.30
37996;DHT22;23808;50.634;6.948;2022-07-23T14:00:40;34.00;55.80
37996;DHT22;23808;50.634;6.948;2022-07-23T14:04:41;34.10;55.60
37996;DHT22;23808;50.634;6.948;2022-07-23T14:08:41;34.00;55.80
37996;DHT22;23808;50.634;6.948;2022-07-23T14:12:42;33.80;55.70
37996;DHT22;23808;50.634;6.948;2022-07-23T14:16:43;33.70;56.60
37996;DHT22;23808;50.634;6.948;2022-07-23T14:20:44;33.90;56.30
37996;DHT22;23808;50.634;6.948;2022-07-23T14:24:44;34.30;56.00
37996;DHT22;23808;50.634;6.948;2022-07-23T14:28:45;34.50;55.30
37996;DHT22;23808;50.634;6.948;2022-07-23T14:32:45;34.10;55.60
37996;DHT22;23808;50.634;6.948;2022-07-23T14:36:46;34.00;56.20
37996;DHT22;23808;50.634;6.948;2022-07-23T14:40:47;33.60;55.70
37996;DHT22;23808;50.634;6.948;2022-07-23T14:44:47;33.30;55.60
37996;DHT22;23808;50.634;6.948;2022-07-23T14:48:48;32.90;56.10
37996;DHT22;23808;50.634;6.948;2022-07-23T14:52:49;32.50;57.10
37996;DHT22;23808;50.634;6.948;2022-07-23T14:56:49;32.20;56.70
37996;DHT22;23808;50.634;6.948;2022-07-23T15:00:50;32.20;56.90
37996;DHT22;23808;50.634;6.948;2022-07-23T15:04:51;32.60;56.30
37996;DHT22;23808;50.634;6.948;2022-07-23T15:08:51;32.60;56.30
37996;DHT22;23808;50.634;6.948;2022-07-23T15:12:52;32.40;56.20
37996;DHT22;23808;50.634;6.948;2022-07-23T15:16:52;32.20;57.50
37996;DHT22;23808;50.634;6.948;2022-07-23T15:20:53;32.10;57.90
37996;DHT22;23808;50.634;6.948;2022-07-23T15:24:54;32.00;57.00
37996;DHT22;23808;50.634;6.948;2022-07-23T15:28:55;31.90;58.10
37996;DHT22;23808;50.634;6.948;2022-07-23T15:32:55;32.20;57.60
37996;DHT22;23808;50.634;6.948;2022-07-23T15:37:01;32.20;57.40
37996;DHT22;23808;50.634;6.948;2022-07-23T15:41:02;32.20;56.90
37996;DHT22;23808;50.634;6.948;2022-07-23T15:45:03;32.00;57.80
37996;DHT22;23808;50.634;6.948;2022-07-23T15:49:05;31.90;58.00
37996;DHT22;23808;50.634;6.948;2022-07-23T15:53:05;32.00;57.50
37996;DHT22;23808;50.634;6.948;2022-07-23T15:57:06;32.10;56.90
37996;DHT22;23808;50.634;6.948;2022-07-23T16:01:07;31.80;57.60
37996;DHT22;23808;50.634;6.948;2022-07-23T16:05:08;31.50;58.00
37996;DHT22;23808;50.634;6.948;2022-07-23T16:09:08;31.20;58.70
37996;DHT22;23808;50.634;6.948;2022-07-23T16:13:09;30.90;58.40
37996;DHT22;23808;50.634;6.948;2022-07-23T16:17:10;30.60;59.60
37996;DHT22;23808;50.634;6.948;2022-07-23T16:21:11;30.50;59.50
37996;DHT22;23808;50.634;6.948;2022-07-23T16:25:13;30.50;59.80
37996;DHT22;23808;50.634;6.948;2022-07-23T16:29:14;30.60;59.40
37996;DHT22;23808;50.634;6.948;2022-07-23T16:33:15;30.60;58.90
37996;DHT22;23808;50.634;6.948;2022-07-23T16:37:15;30.40;59.10
37996;DHT22;23808;50.634;6.948;2022-07-23T16:41:16;30.20;58.30
37996;DHT22;23808;50.634;6.948;2022-07-23T16:45:16;30.10;59.20
37996;DHT22;23808;50.634;6.948;2022-07-23T16:49:17;30.00;60.00
37996;DHT22;23808;50.634;6.948;2022-07-23T16:53:18;29.70;60.30
37996;DHT22;23808;50.634;6.948;2022-07-23T16:57:21;29.50;61.00
37996;DHT22;23808;50.634;6.948;2022-07-23T17:01:22;29.40;61.10
37996;DHT22;23808;50.634;6.948;2022-07-23T17:05:22;29.50;61.00
37996;DHT22;23808;50.634;6.948;2022-07-23T17:09:23;29.60;61.00
37996;DHT22;23808;50.634;6.948;2022-07-23T17:13:25;29.70;60.70
37996;DHT22;23808;50.634;6.948;2022-07-23T17:17:25;29.60;61.30
37996;DHT22;23808;50.634;6.948;2022-07-23T17:21:26;29.40;60.50
37996;DHT22;23808;50.634;6.948;2022-07-23T17:25:27;29.00;61.40
37996;DHT22;23808;50.634;6.948;2022-07-23T17:29:27;28.90;61.20
37996;DHT22;23808;50.634;6.948;2022-07-23T17:33:28;28.70;62.10
37996;DHT22;23808;50.634;6.948;2022-07-23T17:37:28;28.70;61.90
37996;DHT22;23808;50.634;6.948;2022-07-23T17:41:29;28.80;62.00
37996;DHT22;23808;50.634;6.948;2022-07-23T17:45:30;28.90;61.20
37996;DHT22;23808;50.634;6.948;2022-07-23T17:49:31;28.90;61.10
37996;DHT22;23808;50.634;6.948;2022-07-23T17:53:31;28.80;62.10
37996;DHT22;23808;50.634;6.948;2022-07-23T17:57:32;28.70;61.90
37996;DHT22;23808;50.634;6.948;2022-07-23T18:01:33;28.50;62.00
37996;DHT22;23808;50.634;6.948;2022-07-23T18:05:35;28.40;61.70
37996;DHT22;23808;50.634;6.948;2022-07-23T18:09:36;28.20;62.40
37996;DHT22;23808;50.634;6.948;2022-07-23T18:13:36;28.10;62.50
37996;DHT22;23808;50.634;6.948;2022-07-23T18:17:37;27.90;62.20
37996;DHT22;23808;50.634;6.948;2022-07-23T18:21:39;27.70;62.40
37996;DHT22;23808;50.634;6.948;2022-07-23T18:25:39;27.40;63.40
37996;DHT22;23808;50.634;6.948;2022-07-23T18:29:40;27.20;63.80
37996;DHT22;23808;50.634;6.948;2022-07-23T18:33:41;27.20;65.20
37996;DHT22;23808;50.634;6.948;2022-07-23T18:37:42;27.10;65.50
37996;DHT22;23808;50.634;6.948;2022-07-23T18:41:43;27.00;65.30
37996;DHT22;23808;50.634;6.948;2022-07-23T18:45:43;27.00;65.00
37996;DHT22;23808;50.634;6.948;2022-07-23T18:49:44;26.90;65.20
37996;DHT22;23808;50.634;6.948;2022-07-23T18:53:45;26.60;66.10
37996;DHT22;23808;50.634;6.948;2022-07-23T18:57:45;26.40;68.00
37996;DHT22;23808;50.634;6.948;2022-07-23T19:01:46;26.10;68.40
37996;DHT22;23808;50.634;6.948;2022-07-23T19:05:47;25.80;70.20
37996;DHT22;23808;50.634;6.948;2022-07-23T19:09:47;25.60;70.20
37996;DHT22;23808;50.634;6.948;2022-07-23T19:13:48;25.40;71.00
37996;DHT22;23808;50.634;6.948;2022-07-23T19:17:49;25.20;71.60
37996;DHT22;23808;50.634;6.948;2022-07-23T19:21:49;25.00;73.70
37996;DHT22;23808;50.634;6.948;2022-07-23T19:25:50;24.80;73.60
37996;DHT22;23808;50.634;6.948;2022-07-23T19:29:51;24.60;74.70
37996;DHT22;23808;50.634;6.948;2022-07-23T19:33:51;24.40;75.30
37996;DHT22;23808;50.634;6.948;2022-07-23T19:37:52;24.30;77.40
37996;DHT22;23808;50.634;6.948;2022-07-23T19:41:52;24.10;76.20
37996;DHT22;23808;50.634;6.948;2022-07-23T19:45:53;23.90;78.10
37996;DHT22;23808;50.634;6.948;2022-07-23T19:49:54;23.70;78.20
37996;DHT22;23808;50.634;6.948;2022-07-23T19:53:54;23.60;79.70
37996;DHT22;23808;50.634;6.948;2022-07-23T19:57:55;23.40;82.30
37996;DHT22;23808;50.634;6.948;2022-07-23T20:01:56;23.20;81.60
37996;DHT22;23808;50.634;6.948;2022-07-23T20:05:56;23.00;80.30
37996;DHT22;23808;50.634;6.948;2022-07-23T20:09:57;23.00;80.80
37996;DHT22;23808;50.634;6.948;2022-07-23T20:13:58;22.90;83.20
37996;DHT22;23808;50.634;6.948;2022-07-23T20:17:59;22.80;83.90
37996;DHT22;23808;50.634;6.948;2022-07-23T20:22:01;22.70;85.30
37996;DHT22;23808;50.634;6.948;2022-07-23T20:26:02;22.60;85.10
37996;DHT22;23808;50.634;6.948;2022-07-23T20:30:05;22.40;88.20
37996;DHT22;23808;50.634;6.948;2022-07-23T20:34:06;22.30;87.30
37996;DHT22;23808;50.634;6.948;2022-07-23T20:38:07;22.20;88.60
37996;DHT22;23808;50.634;6.948;2022-07-23T20:42:08;22.00;88.60
37996;DHT22;23808;50.634;6.948;2022-07-23T20:46:09;22.00;89.30
37996;DHT22;23808;50.634;6.948;2022-07-23T20:50:10;21.90;88.90
37996;DHT22;23808;50.634;6.948;2022-07-23T20:54:10;21.80;88.70
37996;DHT22;23808;50.634;6.948;2022-07-23T20:58:11;21.70;89.10
37996;DHT22;23808;50.634;6.948;2022-07-23T21:02:12;21.70;90.00
37996;DHT22;23808;50.634;6.948;2022-07-23T21:06:12;21.60;90.00
37996;DHT22;23808;50.634;6.948;2022-07-23T21:10:13;21.60;90.70
37996;DHT22;23808;50.634;6.948;2022-07-23T21:14:14;21.50;91.10
37996;DHT22;23808;50.634;6.948;2022-07-23T21:18:15;21.30;91.50
37996;DHT22;23808;50.634;6.948;2022-07-23T21:22:15;21.30;91.20
37996;DHT22;23808;50.634;6.948;2022-07-23T21:26:17;21.20;91.10
37996;DHT22;23808;50.634;6.948;2022-07-23T21:30:18;21.10;91.30
37996;DHT22;23808;50.634;6.948;2022-07-23T21:34:19;21.00;91.30
37996;DHT22;23808;50.634;6.948;2022-07-23T21:38:19;21.00;91.70
37996;DHT22;23808;50.634;6.948;2022-07-23T21:42:20;21.00;91.80
37996;DHT22;23808;50.634;6.948;2022-07-23T21:46:21;20.90;91.80
37996;DHT22;23808;50.634;6.948;2022-07-23T21:50:21;20.80;92.10
37996;DHT22;23808;50.634;6.948;2022-07-23T21:54:22;20.80;92.00
37996;DHT22;23808;50.634;6.948;2022-07-23T21:58:22;20.70;91.90
37996;DHT22;23808;50.634;6.948;2022-07-23T22:02:23;20.70;92.10
37996;DHT22;23808;50.634;6.948;2022-07-23T22:06:24;20.70;92.30
37996;DHT22;23808;50.634;6.948;2022-07-23T22:10:24;20.60;92.50
37996;DHT22;23808;50.634;6.948;2022-07-23T22:14:26;20.60;92.50
37996;DHT22;23808;50.634;6.948;2022-07-23T22:18:27;20.60;92.70
37996;DHT22;23808;50.634;6.948;2022-07-23T22:22:28;20.50;92.80
37996;DHT22;23808;50.634;6.948;2022-07-23T22:26:28;20.40;92.70
37996;DHT22;23808;50.634;6.948;2022-07-23T22:30:29;20.40;93.50
37996;DHT22;23808;50.634;6.948;2022-07-23T22:34:30;20.30;93.30
37996;DHT22;23808;50.634;6.948;2022-07-23T22:38:30;20.30;93.10
37996;DHT22;23808;50.634;6.948;2022-07-23T22:42:31;20.30;93.30
37996;DHT22;23808;50.634;6.948;2022-07-23T22:46:34;20.20;93.40
37996;DHT22;23808;50.634;6.948;2022-07-23T22:50:35;20.20;93.40
37996;DHT22;23808;50.634;6.948;2022-07-23T22:54:35;20.20;93.40
37996;DHT22;23808;50.634;6.948;2022-07-23T22:58:36;20.20;93.50
37996;DHT22;23808;50.634;6.948;2022-07-23T23:02:36;20.10;93.90
37996;DHT22;23808;50.634;6.948;2022-07-23T23:06:37;20.10;94.10
37996;DHT22;23808;50.634;6.948;2022-07-23T23:10:38;20.10;94.00
37996;DHT22;23808;50.634;6.948;2022-07-23T23:14:38;20.00;94.00
37996;DHT22;23808;50.634;6.948;2022-07-23T23:18:39;20.00;94.10
37996;DHT22;23808;50.634;6.948;2022-07-23T23:22:39;20.00;93.90
37996;DHT22;23808;50.634;6.948;2022-07-23T23:26:40;20.00;94.10
37996;DHT22;23808;50.634;6.948;2022-07-23T23:30:41;20.00;94.30
37996;DHT22;23808;50.634;6.948;2022-07-23T23:34:42;20.00;94.20
37996;DHT22;23808;50.634;6.948;2022-07-23T23:38:42;20.00;94.20
37996;DHT22;23808;50.634;6.948;2022-07-23T23:42:44;20.00;94.20
37996;DHT22;23808;50.634;6.948;2022-07-23T23:46:44;20.00;94.30
37996;DHT22;23808;50.634;6.948;2022-07-23T23:50:45;20.00;94.40
37996;DHT22;23808;50.634;6.948;2022-07-23T23:54:45;19.90;94.60
37996;DHT22;23808;50.634;6.948;2022-07-23T23:58:46;19.90;95.20
